sensor_id;sensor_type;location;lat;lon;timestamp;P1;durP1;ratioP1;P2;durP2;ratioP2
25917;SDS011;13899;51.174;4.456;2023-05-21T00:02:07;3.10;;;2.85;;
25917;SDS011;13899;51.174;4.456;2023-05-21T00:04:36;3.28;;;2.90;;
25917;SDS011;13899;51.174;4.456;2023-05-21T00:07:02;3.13;;;2.88;;
25917;SDS011;13899;51.174;4.456;2023-05-21T00:09:28;3.37;;;2.90;;
25917;SDS011;13899;51.174;4.456;2023-05-21T00:11:53;5.47;;;2.85;;
25917;SDS011;13899;51.174;4.456;2023-05-21T00:14:19;3.30;;;2.80;;
25917;SDS011;13899;51.174;4.456;2023-05-21T00:16:45;6.90;;;3.53;;
25917;SDS011;13899;51.174;4.456;2023-05-21T00:19:11;2.92;;;2.58;;
25917;SDS011;13899;51.174;4.456;2023-05-21T00:21:37;3.85;;;2.63;;
25917;SDS011;13899;51.174;4.456;2023-05-21T00:24:03;3.50;;;3.20;;
25917;SDS011;13899;51.174;4.456;2023-05-21T00:26:29;3.10;;;2.60;;
25917;SDS011;13899;51.174;4.456;2023-05-21T00:28:55;4.27;;;2.77;;
25917;SDS011;13899;51.174;4.456;2023-05-21T00:31:21;3.73;;;3.27;;
25917;SDS011;13899;51.174;4.456;2023-05-21T00:33:46;3.93;;;3.20;;
25917;SDS011;13899;51.174;4.456;2023-05-21T00:36:12;3.40;;;2.90;;
25917;SDS011;13899;51.174;4.456;2023-05-21T00:38:39;3.97;;;3.10;;
25917;SDS011;13899;51.174;4.456;2023-05-21T00:41:07;4.07;;;3.67;;
25917;SDS011;13899;51.174;4.456;2023-05-21T00:43:36;6.88;;;2.92;;
25917;SDS011;13899;51.174;4.456;2023-05-21T00:46:06;6.90;;;3.17;;
25917;SDS011;13899;51.174;4.456;2023-05-21T00:48:32;4.55;;;3.60;;
25917;SDS011;13899;51.174;4.456;2023-05-21T00:50:59;4.40;;;4.00;;
25917;SDS011;13899;51.174;4.456;2023-05-21T00:53:24;3.55;;;2.88;;
25917;SDS011;13899;51.174;4.456;2023-05-21T00:55:51;3.75;;;3.33;;
25917;SDS011;13899;51.174;4.456;2023-05-21T00:58:17;4.30;;;3.43;;
25917;SDS011;13899;51.174;4.456;2023-05-21T01:00:43;4.10;;;3.20;;
25917;SDS011;13899;51.174;4.456;2023-05-21T01:03:09;3.63;;;3.33;;
25917;SDS011;13899;51.174;4.456;2023-05-21T01:05:36;7.35;;;3.70;;
25917;SDS011;13899;51.174;4.456;2023-05-21T01:08:02;3.73;;;3.40;;
25917;SDS011;13899;51.174;4.456;2023-05-21T01:10:28;3.77;;;3.30;;
25917;SDS011;13899;51.174;4.456;2023-05-21T01:12:54;4.10;;;3.70;;
25917;SDS011;13899;51.174;4.456;2023-05-21T01:15:22;3.80;;;3.50;;
25917;SDS011;13899;51.174;4.456;2023-05-21T01:17:48;3.63;;;3.30;;
25917;SDS011;13899;51.174;4.456;2023-05-21T01:20:15;3.67;;;3.13;;
25917;SDS011;13899;51.174;4.456;2023-05-21T01:22:53;4.00;;;3.60;;
25917;SDS011;13899;51.174;4.456;2023-05-21T01:25:20;3.80;;;3.45;;
25917;SDS011;13899;51.174;4.456;2023-05-21T01:27:47;5.30;;;4.20;;
25917;SDS011;13899;51.174;4.456;2023-05-21T01:30:14;4.72;;;3.67;;
25917;SDS011;13899;51.174;4.456;2023-05-21T01:35:41;3.55;;;3.22;;
25917;SDS011;13899;51.174;4.456;2023-05-21T01:38:25;3.72;;;3.42;;
25917;SDS011;13899;51.174;4.456;2023-05-21T01:41:02;4.20;;;3.80;;
25917;SDS011;13899;51.174;4.456;2023-05-21T01:43:32;4.88;;;3.60;;
25917;SDS011;13899;51.174;4.456;2023-05-21T01:46:01;4.30;;;3.95;;
25917;SDS011;13899;51.174;4.456;2023-05-21T01:48:27;4.88;;;4.07;;
25917;SDS011;13899;51.174;4.456;2023-05-21T01:53:21;4.88;;;3.90;;
25917;SDS011;13899;51.174;4.456;2023-05-21T01:55:47;5.10;;;4.00;;
25917;SDS011;13899;51.174;4.456;2023-05-21T01:58:13;3.95;;;3.63;;
25917;SDS011;13899;51.174;4.456;2023-05-21T02:00:43;4.78;;;4.38;;
25917;SDS011;13899;51.174;4.456;2023-05-21T02:03:12;5.18;;;4.53;;
25917;SDS011;13899;51.174;4.456;2023-05-21T02:05:39;3.80;;;3.50;;
25917;SDS011;13899;51.174;4.456;2023-05-21T02:08:04;4.45;;;4.05;;
25917;SDS011;13899;51.174;4.456;2023-05-21T02:10:32;4.40;;;4.00;;
25917;SDS011;13899;51.174;4.456;2023-05-21T02:12:58;4.57;;;4.17;;
25917;SDS011;13899;51.174;4.456;2023-05-21T02:15:24;4.57;;;4.18;;
25917;SDS011;13899;51.174;4.456;2023-05-21T02:17:50;5.72;;;3.92;;
25917;SDS011;13899;51.174;4.456;2023-05-21T02:20:16;4.68;;;4.28;;
25917;SDS011;13899;51.174;4.456;2023-05-21T02:22:42;5.22;;;4.22;;
25917;SDS011;13899;51.174;4.456;2023-05-21T02:25:10;3.83;;;3.50;;
25917;SDS011;13899;51.174;4.456;2023-05-21T02:27:37;4.65;;;4.25;;
25917;SDS011;13899;51.174;4.456;2023-05-21T02:30:05;4.70;;;3.80;;
25917;SDS011;13899;51.174;4.456;2023-05-21T02:32:32;5.32;;;4.15;;
25917;SDS011;13899;51.174;4.456;2023-05-21T02:34:58;4.60;;;3.90;;
25917;SDS011;13899;51.174;4.456;2023-05-21T02:37:25;4.50;;;4.10;;
25917;SDS011;13899;51.174;4.456;2023-05-21T02:39:54;4.63;;;4.22;;
25917;SDS011;13899;51.174;4.456;2023-05-21T02:42:23;4.85;;;4.40;;
25917;SDS011;13899;51.174;4.456;2023-05-21T02:44:50;4.00;;;3.63;;
25917;SDS011;13899;51.174;4.456;2023-05-21T02:47:16;4.72;;;4.32;;
25917;SDS011;13899;51.174;4.456;2023-05-21T02:49:45;4.53;;;4.13;;
25917;SDS011;13899;51.174;4.456;2023-05-21T02:52:11;5.85;;;5.25;;
25917;SDS011;13899;51.174;4.456;2023-05-21T02:54:37;6.17;;;4.33;;
25917;SDS011;13899;51.174;4.456;2023-05-21T02:57:02;4.82;;;4.35;;
25917;SDS011;13899;51.174;4.456;2023-05-21T02:59:28;5.22;;;4.72;;
25917;SDS011;13899;51.174;4.456;2023-05-21T03:01:54;6.07;;;4.90;;
25917;SDS011;13899;51.174;4.456;2023-05-21T03:04:20;5.73;;;5.23;;
25917;SDS011;13899;51.174;4.456;2023-05-21T03:06:49;7.05;;;4.63;;
25917;SDS011;13899;51.174;4.456;2023-05-21T03:09:19;5.30;;;4.80;;
25917;SDS011;13899;51.174;4.456;2023-05-21T03:11:45;5.05;;;4.55;;
25917;SDS011;13899;51.174;4.456;2023-05-21T03:14:11;5.40;;;5.00;;
25917;SDS011;13899;51.174;4.456;2023-05-21T03:16:37;5.88;;;4.53;;
25917;SDS011;13899;51.174;4.456;2023-05-21T03:19:05;5.07;;;4.57;;
25917;SDS011;13899;51.174;4.456;2023-05-21T03:21:32;5.32;;;4.82;;
25917;SDS011;13899;51.174;4.456;2023-05-21T03:23:58;5.40;;;4.93;;
25917;SDS011;13899;51.174;4.456;2023-05-21T03:26:24;4.70;;;4.25;;
25917;SDS011;13899;51.174;4.456;2023-05-21T03:28:56;6.47;;;4.85;;
25917;SDS011;13899;51.174;4.456;2023-05-21T03:31:22;4.45;;;4.10;;
25917;SDS011;13899;51.174;4.456;2023-05-21T03:33:48;5.05;;;4.65;;
25917;SDS011;13899;51.174;4.456;2023-05-21T03:36:15;5.63;;;5.13;;
25917;SDS011;13899;51.174;4.456;2023-05-21T03:38:41;4.97;;;4.57;;
25917;SDS011;13899;51.174;4.456;2023-05-21T03:41:07;5.07;;;4.57;;
25917;SDS011;13899;51.174;4.456;2023-05-21T03:43:33;5.60;;;5.10;;
25917;SDS011;13899;51.174;4.456;2023-05-21T03:45:58;5.83;;;5.00;;
25917;SDS011;13899;51.174;4.456;2023-05-21T03:48:24;6.20;;;5.10;;
25917;SDS011;13899;51.174;4.456;2023-05-21T03:50:50;5.20;;;4.80;;
25917;SDS011;13899;51.174;4.456;2023-05-21T03:53:16;5.63;;;5.07;;
25917;SDS011;13899;51.174;4.456;2023-05-21T03:55:42;6.17;;;5.57;;
25917;SDS011;13899;51.174;4.456;2023-05-21T03:58:07;6.00;;;5.33;;
25917;SDS011;13899;51.174;4.456;2023-05-21T04:05:27;6.00;;;5.45;;
25917;SDS011;13899;51.174;4.456;2023-05-21T04:07:53;5.37;;;4.90;;
25917;SDS011;13899;51.174;4.456;2023-05-21T04:10:18;5.53;;;5.05;;
25917;SDS011;13899;51.174;4.456;2023-05-21T04:12:44;6.38;;;5.72;;
25917;SDS011;13899;51.174;4.456;2023-05-21T04:15:10;5.88;;;5.30;;
25917;SDS011;13899;51.174;4.456;2023-05-21T04:17:36;5.82;;;5.35;;
25917;SDS011;13899;51.174;4.456;2023-05-21T04:20:02;6.07;;;5.57;;
25917;SDS011;13899;51.174;4.456;2023-05-21T04:22:28;7.20;;;5.13;;
25917;SDS011;13899;51.174;4.456;2023-05-21T04:24:54;6.30;;;5.57;;
25917;SDS011;13899;51.174;4.456;2023-05-21T04:27:20;5.30;;;4.80;;
25917;SDS011;13899;51.174;4.456;2023-05-21T04:29:49;6.40;;;5.10;;
25917;SDS011;13899;51.174;4.456;2023-05-21T04:32:15;5.60;;;5.10;;
25917;SDS011;13899;51.174;4.456;2023-05-21T04:34:42;5.18;;;4.78;;
25917;SDS011;13899;51.174;4.456;2023-05-21T04:37:08;5.23;;;4.83;;
25917;SDS011;13899;51.174;4.456;2023-05-21T04:39:34;6.90;;;4.60;;
25917;SDS011;13899;51.174;4.456;2023-05-21T04:42:00;5.20;;;4.70;;
25917;SDS011;13899;51.174;4.456;2023-05-21T04:44:27;5.18;;;4.68;;
25917;SDS011;13899;51.174;4.456;2023-05-21T04:46:53;5.65;;;5.15;;
25917;SDS011;13899;51.174;4.456;2023-05-21T04:49:19;5.27;;;4.87;;
25917;SDS011;13899;51.174;4.456;2023-05-21T04:51:47;5.38;;;4.97;;
25917;SDS011;13899;51.174;4.456;2023-05-21T04:54:15;5.00;;;4.60;;
25917;SDS011;13899;51.174;4.456;2023-05-21T04:56:41;5.93;;;5.30;;
25917;SDS011;13899;51.174;4.456;2023-05-21T04:59:07;5.15;;;4.65;;
25917;SDS011;13899;51.174;4.456;2023-05-21T05:01:32;6.05;;;5.45;;
25917;SDS011;13899;51.174;4.456;2023-05-21T05:03:59;14.38;;;5.28;;
25917;SDS011;13899;51.174;4.456;2023-05-21T05:06:25;6.17;;;5.57;;
25917;SDS011;13899;51.174;4.456;2023-05-21T05:08:51;5.20;;;4.63;;
25917;SDS011;13899;51.174;4.456;2023-05-21T05:11:16;4.90;;;4.40;;
25917;SDS011;13899;51.174;4.456;2023-05-21T05:13:42;6.10;;;4.60;;
25917;SDS011;13899;51.174;4.456;2023-05-21T05:16:08;7.30;;;4.28;;
25917;SDS011;13899;51.174;4.456;2023-05-21T05:18:34;9.40;;;4.87;;
25917;SDS011;13899;51.174;4.456;2023-05-21T05:21:00;4.97;;;4.57;;
25917;SDS011;13899;51.174;4.456;2023-05-21T05:23:26;7.00;;;5.03;;
25917;SDS011;13899;51.174;4.456;2023-05-21T05:25:51;5.97;;;4.47;;
25917;SDS011;13899;51.174;4.456;2023-05-21T05:28:17;7.03;;;5.45;;
25917;SDS011;13899;51.174;4.456;2023-05-21T05:30:43;5.20;;;4.70;;
25917;SDS011;13899;51.174;4.456;2023-05-21T05:33:08;5.82;;;4.88;;
25917;SDS011;13899;51.174;4.456;2023-05-21T05:35:35;6.28;;;5.00;;
25917;SDS011;13899;51.174;4.456;2023-05-21T05:38:01;7.27;;;4.63;;
25917;SDS011;13899;51.174;4.456;2023-05-21T05:40:26;6.05;;;5.30;;
25917;SDS011;13899;51.174;4.456;2023-05-21T05:42:52;6.67;;;4.97;;
25917;SDS011;13899;51.174;4.456;2023-05-21T05:45:18;4.85;;;4.45;;
25917;SDS011;13899;51.174;4.456;2023-05-21T05:47:44;5.25;;;4.65;;
25917;SDS011;13899;51.174;4.456;2023-05-21T05:50:10;5.22;;;4.72;;
25917;SDS011;13899;51.174;4.456;2023-05-21T05:52:35;5.47;;;4.97;;
25917;SDS011;13899;51.174;4.456;2023-05-21T05:55:01;5.53;;;5.13;;
25917;SDS011;13899;51.174;4.456;2023-05-21T05:57:27;5.93;;;4.17;;
25917;SDS011;13899;51.174;4.456;2023-05-21T05:59:53;5.37;;;4.83;;
25917;SDS011;13899;51.174;4.456;2023-05-21T06:02:18;4.90;;;4.50;;
25917;SDS011;13899;51.174;4.456;2023-05-21T06:04:44;5.57;;;4.97;;
25917;SDS011;13899;51.174;4.456;2023-05-21T06:07:10;5.97;;;4.67;;
25917;SDS011;13899;51.174;4.456;2023-05-21T06:09:36;5.07;;;4.67;;
25917;SDS011;13899;51.174;4.456;2023-05-21T06:12:03;6.68;;;4.78;;
25917;SDS011;13899;51.174;4.456;2023-05-21T06:14:32;6.32;;;4.95;;
25917;SDS011;13899;51.174;4.456;2023-05-21T06:16:57;5.77;;;5.23;;
25917;SDS011;13899;51.174;4.456;2023-05-21T06:19:23;5.17;;;4.63;;
25917;SDS011;13899;51.174;4.456;2023-05-21T06:21:49;5.20;;;4.80;;
25917;SDS011;13899;51.174;4.456;2023-05-21T06:24:14;7.47;;;4.60;;
25917;SDS011;13899;51.174;4.456;2023-05-21T06:26:40;5.80;;;5.30;;
25917;SDS011;13899;51.174;4.456;2023-05-21T06:29:06;5.17;;;4.67;;
25917;SDS011;13899;51.174;4.456;2023-05-21T06:31:32;5.30;;;4.90;;
25917;SDS011;13899;51.174;4.456;2023-05-21T06:33:58;4.57;;;4.17;;
25917;SDS011;13899;51.174;4.456;2023-05-21T06:36:24;5.85;;;4.68;;
25917;SDS011;13899;51.174;4.456;2023-05-21T06:38:54;5.10;;;4.60;;
25917;SDS011;13899;51.174;4.456;2023-05-21T06:41:21;6.20;;;5.65;;
25917;SDS011;13899;51.174;4.456;2023-05-21T06:43:46;5.80;;;5.30;;
25917;SDS011;13899;51.174;4.456;2023-05-21T06:46:12;5.93;;;4.70;;
25917;SDS011;13899;51.174;4.456;2023-05-21T06:48:38;5.27;;;4.87;;
25917;SDS011;13899;51.174;4.456;2023-05-21T06:51:04;5.68;;;4.90;;
25917;SDS011;13899;51.174;4.456;2023-05-21T06:53:30;5.10;;;4.60;;
25917;SDS011;13899;51.174;4.456;2023-05-21T06:55:55;5.32;;;4.90;;
25917;SDS011;13899;51.174;4.456;2023-05-21T06:58:21;5.73;;;5.23;;
25917;SDS011;13899;51.174;4.456;2023-05-21T07:00:47;5.70;;;5.20;;
25917;SDS011;13899;51.174;4.456;2023-05-21T07:03:13;6.70;;;5.38;;
25917;SDS011;13899;51.174;4.456;2023-05-21T07:05:39;6.00;;;5.50;;
25917;SDS011;13899;51.174;4.456;2023-05-21T07:08:04;5.83;;;5.33;;
25917;SDS011;13899;51.174;4.456;2023-05-21T07:10:30;5.57;;;5.07;;
25917;SDS011;13899;51.174;4.456;2023-05-21T07:12:56;5.93;;;5.43;;
25917;SDS011;13899;51.174;4.456;2023-05-21T07:15:21;6.77;;;5.37;;
25917;SDS011;13899;51.174;4.456;2023-05-21T07:17:47;5.73;;;5.23;;
25917;SDS011;13899;51.174;4.456;2023-05-21T07:20:13;5.67;;;5.17;;
25917;SDS011;13899;51.174;4.456;2023-05-21T07:22:38;6.30;;;5.70;;
25917;SDS011;13899;51.174;4.456;2023-05-21T07:25:05;5.70;;;5.20;;
25917;SDS011;13899;51.174;4.456;2023-05-21T07:27:31;5.95;;;5.45;;
25917;SDS011;13899;51.174;4.456;2023-05-21T07:29:57;6.22;;;5.57;;
25917;SDS011;13899;51.174;4.456;2023-05-21T07:32:22;6.43;;;5.93;;
25917;SDS011;13899;51.174;4.456;2023-05-21T07:34:48;6.60;;;6.07;;
25917;SDS011;13899;51.174;4.456;2023-05-21T07:37:14;7.30;;;6.57;;
25917;SDS011;13899;51.174;4.456;2023-05-21T07:39:39;6.33;;;5.13;;
25917;SDS011;13899;51.174;4.456;2023-05-21T07:42:05;6.67;;;6.07;;
25917;SDS011;13899;51.174;4.456;2023-05-21T07:44:31;6.10;;;5.50;;
25917;SDS011;13899;51.174;4.456;2023-05-21T07:46:56;6.40;;;5.80;;
25917;SDS011;13899;51.174;4.456;2023-05-21T07:49:22;6.03;;;5.50;;
25917;SDS011;13899;51.174;4.456;2023-05-21T07:51:48;7.57;;;5.20;;
25917;SDS011;13899;51.174;4.456;2023-05-21T07:54:13;6.20;;;5.70;;
25917;SDS011;13899;51.174;4.456;2023-05-21T07:56:39;6.27;;;5.67;;
25917;SDS011;13899;51.174;4.456;2023-05-21T07:59:05;6.27;;;5.63;;
25917;SDS011;13899;51.174;4.456;2023-05-21T08:01:30;6.10;;;5.60;;
25917;SDS011;13899;51.174;4.456;2023-05-21T08:03:57;5.95;;;5.43;;
25917;SDS011;13899;51.174;4.456;2023-05-21T08:06:25;6.63;;;6.13;;
25917;SDS011;13899;51.174;4.456;2023-05-21T08:08:51;6.23;;;5.63;;
25917;SDS011;13899;51.174;4.456;2023-05-21T08:13:43;5.87;;;5.47;;
25917;SDS011;13899;51.174;4.456;2023-05-21T08:16:09;6.63;;;6.13;;
25917;SDS011;13899;51.174;4.456;2023-05-21T08:18:35;6.20;;;5.70;;
25917;SDS011;13899;51.174;4.456;2023-05-21T08:21:00;9.77;;;7.13;;
25917;SDS011;13899;51.174;4.456;2023-05-21T08:23:26;6.50;;;6.00;;
25917;SDS011;13899;51.174;4.456;2023-05-21T08:25:52;6.77;;;6.17;;
25917;SDS011;13899;51.174;4.456;2023-05-21T08:28:17;7.23;;;6.27;;
25917;SDS011;13899;51.174;4.456;2023-05-21T08:30:46;6.68;;;5.97;;
25917;SDS011;13899;51.174;4.456;2023-05-21T08:33:11;6.43;;;5.83;;
25917;SDS011;13899;51.174;4.456;2023-05-21T08:35:37;7.13;;;6.43;;
25917;SDS011;13899;51.174;4.456;2023-05-21T08:38:03;8.00;;;6.07;;
25917;SDS011;13899;51.174;4.456;2023-05-21T08:40:29;6.50;;;5.57;;
25917;SDS011;13899;51.174;4.456;2023-05-21T08:42:55;12.20;;;6.83;;
25917;SDS011;13899;51.174;4.456;2023-05-21T08:45:21;5.90;;;5.40;;
25917;SDS011;13899;51.174;4.456;2023-05-21T08:47:47;6.45;;;5.95;;
25917;SDS011;13899;51.174;4.456;2023-05-21T08:50:19;6.78;;;6.07;;
25917;SDS011;13899;51.174;4.456;2023-05-21T08:52:45;6.43;;;5.93;;
25917;SDS011;13899;51.174;4.456;2023-05-21T08:55:11;9.97;;;9.30;;
25917;SDS011;13899;51.174;4.456;2023-05-21T08:57:38;8.83;;;8.03;;
25917;SDS011;13899;51.174;4.456;2023-05-21T09:00:06;6.28;;;5.68;;
25917;SDS011;13899;51.174;4.456;2023-05-21T09:02:33;6.95;;;5.50;;
25917;SDS011;13899;51.174;4.456;2023-05-21T09:05:02;6.05;;;5.55;;
25917;SDS011;13899;51.174;4.456;2023-05-21T09:07:28;7.17;;;5.73;;
25917;SDS011;13899;51.174;4.456;2023-05-21T09:10:07;7.00;;;6.50;;
25917;SDS011;13899;51.174;4.456;2023-05-21T09:12:37;7.30;;;6.68;;
25917;SDS011;13899;51.174;4.456;2023-05-21T09:15:02;12.50;;;11.70;;
25917;SDS011;13899;51.174;4.456;2023-05-21T09:17:29;10.63;;;9.88;;
25917;SDS011;13899;51.174;4.456;2023-05-21T09:20:11;6.57;;;5.97;;
25917;SDS011;13899;51.174;4.456;2023-05-21T09:22:41;6.32;;;5.72;;
25917;SDS011;13899;51.174;4.456;2023-05-21T09:25:19;7.38;;;6.78;;
25917;SDS011;13899;51.174;4.456;2023-05-21T09:27:48;12.52;;;11.55;;
25917;SDS011;13899;51.174;4.456;2023-05-21T09:30:15;11.48;;;10.77;;
25917;SDS011;13899;51.174;4.456;2023-05-21T09:32:42;10.95;;;10.25;;
25917;SDS011;13899;51.174;4.456;2023-05-21T09:35:10;10.20;;;9.13;;
25917;SDS011;13899;51.174;4.456;2023-05-21T09:37:41;13.85;;;12.95;;
25917;SDS011;13899;51.174;4.456;2023-05-21T09:42:46;6.72;;;6.13;;
25917;SDS011;13899;51.174;4.456;2023-05-21T09:45:23;6.32;;;5.82;;
25917;SDS011;13899;51.174;4.456;2023-05-21T09:47:49;6.80;;;6.30;;
25917;SDS011;13899;51.174;4.456;2023-05-21T09:50:18;10.77;;;9.75;;
25917;SDS011;13899;51.174;4.456;2023-05-21T09:52:46;12.18;;;11.20;;
25917;SDS011;13899;51.174;4.456;2023-05-21T09:55:15;6.75;;;6.10;;
25917;SDS011;13899;51.174;4.456;2023-05-21T09:57:41;6.50;;;6.00;;
25917;SDS011;13899;51.174;4.456;2023-05-21T10:00:08;6.32;;;5.72;;
25917;SDS011;13899;51.174;4.456;2023-05-21T10:02:41;12.27;;;11.60;;
25917;SDS011;13899;51.174;4.456;2023-05-21T10:05:09;10.45;;;9.35;;
25917;SDS011;13899;51.174;4.456;2023-05-21T10:07:37;6.85;;;6.25;;
25917;SDS011;13899;51.174;4.456;2023-05-21T10:10:05;6.50;;;6.00;;
25917;SDS011;13899;51.174;4.456;2023-05-21T10:12:35;9.57;;;8.98;;
25917;SDS011;13899;51.174;4.456;2023-05-21T10:15:02;7.10;;;6.60;;
25917;SDS011;13899;51.174;4.456;2023-05-21T10:17:30;14.30;;;13.05;;
25917;SDS011;13899;51.174;4.456;2023-05-21T10:19:56;9.25;;;8.55;;
25917;SDS011;13899;51.174;4.456;2023-05-21T10:22:24;10.95;;;10.15;;
25917;SDS011;13899;51.174;4.456;2023-05-21T10:24:51;12.68;;;11.77;;
25917;SDS011;13899;51.174;4.456;2023-05-21T10:27:17;6.40;;;5.90;;
25917;SDS011;13899;51.174;4.456;2023-05-21T10:29:44;8.90;;;8.18;;
25917;SDS011;13899;51.174;4.456;2023-05-21T10:34:37;7.80;;;7.20;;
25917;SDS011;13899;51.174;4.456;2023-05-21T10:37:03;9.35;;;8.60;;
25917;SDS011;13899;51.174;4.456;2023-05-21T10:39:33;6.45;;;5.70;;
25917;SDS011;13899;51.174;4.456;2023-05-21T10:42:20;7.25;;;6.35;;
25917;SDS011;13899;51.174;4.456;2023-05-21T11:01:33;8.82;;;8.15;;
25917;SDS011;13899;51.174;4.456;2023-05-21T11:04:01;10.63;;;9.93;;
25917;SDS011;13899;51.174;4.456;2023-05-21T11:06:28;9.65;;;8.75;;
25917;SDS011;13899;51.174;4.456;2023-05-21T11:08:54;20.47;;;19.30;;
25917;SDS011;13899;51.174;4.456;2023-05-21T11:17:03;11.95;;;10.95;;
25917;SDS011;13899;51.174;4.456;2023-05-21T11:20:02;7.55;;;6.85;;
25917;SDS011;13899;51.174;4.456;2023-05-21T11:22:29;8.82;;;8.13;;
25917;SDS011;13899;51.174;4.456;2023-05-21T11:24:59;18.55;;;17.25;;
25917;SDS011;13899;51.174;4.456;2023-05-21T11:27:36;8.63;;;7.88;;
25917;SDS011;13899;51.174;4.456;2023-05-21T11:30:07;12.57;;;11.88;;
25917;SDS011;13899;51.174;4.456;2023-05-21T11:33:26;10.77;;;10.07;;
25917;SDS011;13899;51.174;4.456;2023-05-21T11:35:37;9.52;;;8.82;;
25917;SDS011;13899;51.174;4.456;2023-05-21T11:38:19;9.15;;;7.78;;
25917;SDS011;13899;51.174;4.456;2023-05-21T11:40:51;8.33;;;7.63;;
25917;SDS011;13899;51.174;4.456;2023-05-21T11:43:20;8.10;;;7.30;;
25917;SDS011;13899;51.174;4.456;2023-05-21T11:45:46;13.60;;;12.70;;
25917;SDS011;13899;51.174;4.456;2023-05-21T11:48:12;12.95;;;12.05;;
25917;SDS011;13899;51.174;4.456;2023-05-21T11:50:38;9.68;;;8.88;;
25917;SDS011;13899;51.174;4.456;2023-05-21T11:53:06;16.05;;;14.85;;
25917;SDS011;13899;51.174;4.456;2023-05-21T11:55:33;10.60;;;9.70;;
25917;SDS011;13899;51.174;4.456;2023-05-21T11:58:03;9.82;;;9.02;;
25917;SDS011;13899;51.174;4.456;2023-05-21T12:00:36;9.15;;;8.45;;
25917;SDS011;13899;51.174;4.456;2023-05-21T12:03:04;10.75;;;9.82;;
25917;SDS011;13899;51.174;4.456;2023-05-21T12:05:42;12.73;;;11.68;;
25917;SDS011;13899;51.174;4.456;2023-05-21T12:08:11;9.30;;;8.57;;
25917;SDS011;13899;51.174;4.456;2023-05-21T12:10:37;8.47;;;7.77;;
25917;SDS011;13899;51.174;4.456;2023-05-21T12:13:05;8.40;;;7.70;;
25917;SDS011;13899;51.174;4.456;2023-05-21T12:15:31;7.73;;;7.23;;
25917;SDS011;13899;51.174;4.456;2023-05-21T12:17:57;14.13;;;13.13;;
25917;SDS011;13899;51.174;4.456;2023-05-21T12:20:24;10.38;;;9.48;;
25917;SDS011;13899;51.174;4.456;2023-05-21T12:22:51;8.00;;;7.40;;
25917;SDS011;13899;51.174;4.456;2023-05-21T12:25:18;15.82;;;14.23;;
25917;SDS011;13899;51.174;4.456;2023-05-21T12:27:45;18.25;;;17.05;;
25917;SDS011;13899;51.174;4.456;2023-05-21T12:30:11;14.18;;;13.30;;
25917;SDS011;13899;51.174;4.456;2023-05-21T12:32:41;12.25;;;11.30;;
25917;SDS011;13899;51.174;4.456;2023-05-21T12:35:19;12.25;;;11.35;;
25917;SDS011;13899;51.174;4.456;2023-05-21T12:37:46;8.55;;;7.95;;
25917;SDS011;13899;51.174;4.456;2023-05-21T12:40:14;8.57;;;7.78;;
25917;SDS011;13899;51.174;4.456;2023-05-21T12:42:40;8.50;;;7.90;;
25917;SDS011;13899;51.174;4.456;2023-05-21T12:45:08;13.23;;;12.30;;
25917;SDS011;13899;51.174;4.456;2023-05-21T12:47:35;7.53;;;6.75;;
25917;SDS011;13899;51.174;4.456;2023-05-21T12:50:02;15.18;;;14.38;;
25917;SDS011;13899;51.174;4.456;2023-05-21T12:52:28;12.38;;;11.45;;
25917;SDS011;13899;51.174;4.456;2023-05-21T12:54:57;16.55;;;15.68;;
25917;SDS011;13899;51.174;4.456;2023-05-21T12:57:26;12.43;;;11.55;;
25917;SDS011;13899;51.174;4.456;2023-05-21T12:59:59;11.40;;;10.70;;
25917;SDS011;13899;51.174;4.456;2023-05-21T13:02:41;9.00;;;8.20;;
25917;SDS011;13899;51.174;4.456;2023-05-21T13:05:08;11.07;;;10.38;;
25917;SDS011;13899;51.174;4.456;2023-05-21T13:07:38;13.40;;;12.60;;
25917;SDS011;13899;51.174;4.456;2023-05-21T13:10:04;14.98;;;14.00;;
25917;SDS011;13899;51.174;4.456;2023-05-21T13:14:58;9.10;;;8.30;;
25917;SDS011;13899;51.174;4.456;2023-05-21T13:17:25;16.25;;;15.35;;
25917;SDS011;13899;51.174;4.456;2023-05-21T13:22:51;7.95;;;7.15;;
25917;SDS011;13899;51.174;4.456;2023-05-21T13:25:17;13.02;;;12.02;;
25917;SDS011;13899;51.174;4.456;2023-05-21T13:27:49;7.78;;;7.07;;
25917;SDS011;13899;51.174;4.456;2023-05-21T13:30:16;7.43;;;6.82;;
25917;SDS011;13899;51.174;4.456;2023-05-21T13:32:42;14.95;;;14.02;;
25917;SDS011;13899;51.174;4.456;2023-05-21T13:35:08;12.65;;;11.95;;
25917;SDS011;13899;51.174;4.456;2023-05-21T13:37:35;12.18;;;11.48;;
25917;SDS011;13899;51.174;4.456;2023-05-21T13:40:03;13.43;;;12.52;;
25917;SDS011;13899;51.174;4.456;2023-05-21T13:42:30;13.48;;;12.57;;
25917;SDS011;13899;51.174;4.456;2023-05-21T13:44:56;11.97;;;11.07;;
25917;SDS011;13899;51.174;4.456;2023-05-21T13:47:22;11.65;;;10.85;;
25917;SDS011;13899;51.174;4.456;2023-05-21T13:49:48;6.87;;;6.13;;
25917;SDS011;13899;51.174;4.456;2023-05-21T13:52:13;7.40;;;6.80;;
25917;SDS011;13899;51.174;4.456;2023-05-21T13:54:41;8.50;;;7.70;;
25917;SDS011;13899;51.174;4.456;2023-05-21T13:57:07;11.80;;;10.82;;
25917;SDS011;13899;51.174;4.456;2023-05-21T13:59:33;9.85;;;9.13;;
25917;SDS011;13899;51.174;4.456;2023-05-21T14:01:59;10.70;;;9.90;;
25917;SDS011;13899;51.174;4.456;2023-05-21T14:04:25;13.60;;;12.80;;
25917;SDS011;13899;51.174;4.456;2023-05-21T14:06:50;17.00;;;15.83;;
25917;SDS011;13899;51.174;4.456;2023-05-21T14:09:16;12.77;;;11.90;;
25917;SDS011;13899;51.174;4.456;2023-05-21T14:11:42;7.47;;;6.93;;
25917;SDS011;13899;51.174;4.456;2023-05-21T14:14:08;18.43;;;17.33;;
25917;SDS011;13899;51.174;4.456;2023-05-21T14:16:33;11.27;;;10.37;;
25917;SDS011;13899;51.174;4.456;2023-05-21T14:18:59;7.57;;;6.87;;
25917;SDS011;13899;51.174;4.456;2023-05-21T14:21:25;6.87;;;6.23;;
25917;SDS011;13899;51.174;4.456;2023-05-21T14:23:50;13.23;;;12.27;;
25917;SDS011;13899;51.174;4.456;2023-05-21T14:26:16;7.72;;;7.05;;
25917;SDS011;13899;51.174;4.456;2023-05-21T14:28:43;9.10;;;6.80;;
25917;SDS011;13899;51.174;4.456;2023-05-21T14:33:35;26.58;;;23.83;;
25917;SDS011;13899;51.174;4.456;2023-05-21T14:36:01;39.88;;;35.65;;
25917;SDS011;13899;51.174;4.456;2023-05-21T14:38:28;22.85;;;20.73;;
25917;SDS011;13899;51.174;4.456;2023-05-21T14:40:54;13.25;;;12.45;;
25917;SDS011;13899;51.174;4.456;2023-05-21T14:43:20;11.23;;;10.63;;
25917;SDS011;13899;51.174;4.456;2023-05-21T14:45:46;6.72;;;6.18;;
25917;SDS011;13899;51.174;4.456;2023-05-21T14:50:38;7.15;;;6.50;;
25917;SDS011;13899;51.174;4.456;2023-05-21T14:53:07;6.70;;;6.15;;
25917;SDS011;13899;51.174;4.456;2023-05-21T14:55:34;8.32;;;7.72;;
25917;SDS011;13899;51.174;4.456;2023-05-21T14:58:01;9.70;;;9.10;;
25917;SDS011;13899;51.174;4.456;2023-05-21T15:00:30;11.50;;;10.57;;
25917;SDS011;13899;51.174;4.456;2023-05-21T15:02:56;8.15;;;7.60;;
25917;SDS011;13899;51.174;4.456;2023-05-21T15:05:23;11.80;;;11.10;;
25917;SDS011;13899;51.174;4.456;2023-05-21T15:07:50;10.48;;;9.77;;
25917;SDS011;13899;51.174;4.456;2023-05-21T15:10:16;9.97;;;9.37;;
25917;SDS011;13899;51.174;4.456;2023-05-21T15:12:41;7.53;;;7.03;;
25917;SDS011;13899;51.174;4.456;2023-05-21T15:15:07;10.40;;;9.57;;
25917;SDS011;13899;51.174;4.456;2023-05-21T15:17:33;9.10;;;8.50;;
25917;SDS011;13899;51.174;4.456;2023-05-21T15:19:59;9.02;;;8.15;;
25917;SDS011;13899;51.174;4.456;2023-05-21T15:22:28;8.25;;;7.60;;
25917;SDS011;13899;51.174;4.456;2023-05-21T15:24:56;9.63;;;8.82;;
25917;SDS011;13899;51.174;4.456;2023-05-21T15:27:23;8.87;;;8.27;;
25917;SDS011;13899;51.174;4.456;2023-05-21T15:29:49;7.78;;;7.18;;
25917;SDS011;13899;51.174;4.456;2023-05-21T15:32:15;7.80;;;7.00;;
25917;SDS011;13899;51.174;4.456;2023-05-21T15:34:41;9.43;;;8.38;;